sensor_id;sensor_type;location;lat;lon;timestamp;pressure;altitude;pressure_sealevel;temperature;humidity
28456;BME280;15682;56.742;38.866;2024-03-02T00:00:31;100900.0;;;1.9;100.0
28456;BME280;15682;56.742;38.866;2024-03-02T00:02:31;100900.0;;;1.9;100.0
28456;BME280;15682;56.742;38.866;2024-03-02T00:04:31;100900.0;;;1.9;99.2
28456;BME280;15682;56.742;38.866;2024-03-02T00:06:32;100900.0;;;1.8;99.2
28456;BME280;15682;56.742;38.866;2024-03-02T00:08:32;100900.0;;;1.8;99.2
28456;BME280;15682;56.742;38.866;2024-03-02T00:10:36;100900.0;;;1.8;98.7
28456;BME280;15682;56.742;38.866;2024-03-02T00:12:31;100910.0;;;1.8;98.7
28456;BME280;15682;56.742;38.866;2024-03-02T00:14:32;100910.0;;;1.6;98.7
28456;BME280;15682;56.742;38.866;2024-03-02T00:16:32;100910.0;;;1.6;99.5
28456;BME280;15682;56.742;38.866;2024-03-02T00:18:33;100910.0;;;1.6;99.5
28456;BME280;15682;56.742;38.866;2024-03-02T00:20:32;100910.0;;;1.6;99.5
28456;BME280;15682;56.742;38.866;2024-03-02T00:22:32;100920.0;;;1.6;99.5
28456;BME280;15682;56.742;38.866;2024-03-02T00:24:34;100920.0;;;1.6;98.7
28456;BME280;15682;56.742;38.866;2024-03-02T00:26:32;100920.0;;;1.6;98.7
28456;BME280;15682;56.742;38.866;2024-03-02T00:28:33;100920.0;;;1.6;98.7
28456;BME280;15682;56.742;38.866;2024-03-02T00:30:50;100920.0;;;1.7;98.7
28456;BME280;15682;56.742;38.866;2024-03-02T00:32:32;100920.0;;;1.7;98.2
28456;BME280;15682;56.742;38.866;2024-03-02T00:34:32;100920.0;;;1.8;99.6
28456;BME280;15682;56.742;38.866;2024-03-02T00:36:32;100920.0;;;1.9;99.6
28456;BME280;15682;56.742;38.866;2024-03-02T00:38:32;100920.0;;;1.9;98.9
28456;BME280;15682;56.742;38.866;2024-03-02T00:40:32;100920.0;;;1.9;98.9
28456;BME280;15682;56.742;38.866;2024-03-02T00:42:32;100920.0;;;1.9;98.9
28456;BME280;15682;56.742;38.866;2024-03-02T00:44:33;100920.0;;;1.9;100.0
28456;BME280;15682;56.742;38.866;2024-03-02T00:46:34;100920.0;;;1.7;98.9
28456;BME280;15682;56.742;38.866;2024-03-02T00:48:32;100920.0;;;1.7;98.9
28456;BME280;15682;56.742;38.866;2024-03-02T00:50:32;100920.0;;;1.7;99.1
28456;BME280;15682;56.742;38.866;2024-03-02T00:52:32;100920.0;;;1.7;99.1
28456;BME280;15682;56.742;38.866;2024-03-02T00:54:32;100920.0;;;1.7;98.9
28456;BME280;15682;56.742;38.866;2024-03-02T00:56:32;100920.0;;;1.7;98.9
28456;BME280;15682;56.742;38.866;2024-03-02T00:58:32;100920.0;;;1.7;98.6
28456;BME280;15682;56.742;38.866;2024-03-02T01:00:32;100920.0;;;1.7;98.6
28456;BME280;15682;56.742;38.866;2024-03-02T01:02:32;100920.0;;;1.7;99.5
28456;BME280;15682;56.742;38.866;2024-03-02T01:04:32;100920.0;;;1.7;100.0
28456;BME280;15682;56.742;38.866;2024-03-02T01:06:32;100920.0;;;1.6;100.0
28456;BME280;15682;56.742;38.866;2024-03-02T01:08:32;100920.0;;;1.6;100.0
28456;BME280;15682;56.742;38.866;2024-03-02T01:10:32;100920.0;;;1.6;100.0
28456;BME280;15682;56.742;38.866;2024-03-02T01:12:32;100920.0;;;1.6;100.0
28456;BME280;15682;56.742;38.866;2024-03-02T01:14:32;100920.0;;;1.6;99.3
28456;BME280;15682;56.742;38.866;2024-03-02T01:16:32;100920.0;;;1.6;99.3
28456;BME280;15682;56.742;38.866;2024-03-02T01:18:32;100920.0;;;1.6;99.3
28456;BME280;15682;56.742;38.866;2024-03-02T01:20:32;100920.0;;;1.5;99.3
28456;BME280;15682;56.742;38.866;2024-03-02T01:22:32;100920.0;;;1.5;99.3
28456;BME280;15682;56.742;38.866;2024-03-02T01:24:32;100920.0;;;1.5;99.7
28456;BME280;15682;56.742;38.866;2024-03-02T01:26:32;100920.0;;;1.5;99.7
28456;BME280;15682;56.742;38.866;2024-03-02T01:28:32;100920.0;;;1.5;99.7
28456;BME280;15682;56.742;38.866;2024-03-02T01:30:32;100920.0;;;1.5;99.7
28456;BME280;15682;56.742;38.866;2024-03-02T01:32:32;100920.0;;;1.5;99.7
28456;BME280;15682;56.742;38.866;2024-03-02T01:34:32;100920.0;;;1.5;99.3
28456;BME280;15682;56.742;38.866;2024-03-02T01:36:32;100930.0;;;1.5;99.3
28456;BME280;15682;56.742;38.866;2024-03-02T01:38:32;100930.0;;;1.5;99.3
28456;BME280;15682;56.742;38.866;2024-03-02T01:40:33;100930.0;;;1.5;99.3
28456;BME280;15682;56.742;38.866;2024-03-02T01:42:32;100930.0;;;1.5;99.3
28456;BME280;15682;56.742;38.866;2024-03-02T01:44:32;100930.0;;;1.5;99.3
28456;BME280;15682;56.742;38.866;2024-03-02T01:46:32;100930.0;;;1.4;99.3
28456;BME280;15682;56.742;38.866;2024-03-02T01:48:32;100930.0;;;1.4;99.3
28456;BME280;15682;56.742;38.866;2024-03-02T01:50:33;100930.0;;;1.4;99.3
28456;BME280;15682;56.742;38.866;2024-03-02T01:52:32;100930.0;;;1.4;99.3
28456;BME280;15682;56.742;38.866;2024-03-02T01:54:32;100930.0;;;1.6;99.3
28456;BME280;15682;56.742;38.866;2024-03-02T01:56:32;100930.0;;;1.5;99.0
28456;BME280;15682;56.742;38.866;2024-03-02T01:58:32;100930.0;;;1.4;99.0
28456;BME280;15682;56.742;38.866;2024-03-02T02:00:32;100930.0;;;1.4;99.6
28456;BME280;15682;56.742;38.866;2024-03-02T02:02:32;100930.0;;;1.4;99.6
28456;BME280;15682;56.742;38.866;2024-03-02T02:04:32;100930.0;;;1.4;99.5
28456;BME280;15682;56.742;38.866;2024-03-02T02:06:32;100930.0;;;1.4;99.5
28456;BME280;15682;56.742;38.866;2024-03-02T02:08:32;100930.0;;;1.4;99.5
28456;BME280;15682;56.742;38.866;2024-03-02T02:10:32;100930.0;;;1.4;99.5
28456;BME280;15682;56.742;38.866;2024-03-02T02:12:32;100930.0;;;1.4;99.5
28456;BME280;15682;56.742;38.866;2024-03-02T02:14:32;100930.0;;;1.4;99.3
28456;BME280;15682;56.742;38.866;2024-03-02T02:16:32;100930.0;;;1.3;99.3
28456;BME280;15682;56.742;38.866;2024-03-02T02:18:32;100930.0;;;1.3;99.3
28456;BME280;15682;56.742;38.866;2024-03-02T02:20:32;100930.0;;;1.3;99.3
28456;BME280;15682;56.742;38.866;2024-03-02T02:22:32;100930.0;;;1.3;99.3
28456;BME280;15682;56.742;38.866;2024-03-02T02:24:32;100930.0;;;1.3;100.0
28456;BME280;15682;56.742;38.866;2024-03-02T02:26:32;100930.0;;;1.3;100.0
28456;BME280;15682;56.742;38.866;2024-03-02T02:28:33;100930.0;;;1.4;100.0
28456;BME280;15682;56.742;38.866;2024-03-02T02:30:33;100930.0;;;1.4;100.0
28456;BME280;15682;56.742;38.866;2024-03-02T02:32:32;100930.0;;;1.4;100.0
28456;BME280;15682;56.742;38.866;2024-03-02T02:34:32;100930.0;;;1.4;99.8
28456;BME280;15682;56.742;38.866;2024-03-02T02:36:32;100930.0;;;1.3;99.8
28456;BME280;15682;56.742;38.866;2024-03-02T02:38:33;100930.0;;;1.3;99.8
28456;BME280;15682;56.742;38.866;2024-03-02T02:40:32;100930.0;;;1.2;99.8
28456;BME280;15682;56.742;38.866;2024-03-02T02:42:32;100930.0;;;1.2;99.8
28456;BME280;15682;56.742;38.866;2024-03-02T02:44:32;100930.0;;;1.2;100.0
28456;BME280;15682;56.742;38.866;2024-03-02T02:46:32;100930.0;;;1.3;100.0
28456;BME280;15682;56.742;38.866;2024-03-02T02:48:32;100930.0;;;1.3;100.0
28456;BME280;15682;56.742;38.866;2024-03-02T02:50:32;100930.0;;;1.3;100.0
28456;BME280;15682;56.742;38.866;2024-03-02T02:52:32;100930.0;;;1.5;100.0
28456;BME280;15682;56.742;38.866;2024-03-02T02:54:32;100930.0;;;1.6;100.0
28456;BME280;15682;56.742;38.866;2024-03-02T02:56:32;100930.0;;;1.3;100.0
28456;BME280;15682;56.742;38.866;2024-03-02T02:58:32;100930.0;;;1.3;100.0
28456;BME280;15682;56.742;38.866;2024-03-02T03:00:32;100930.0;;;1.3;100.0
28456;BME280;15682;56.742;38.866;2024-03-02T03:02:32;100930.0;;;1.2;100.0
28456;BME280;15682;56.742;38.866;2024-03-02T03:04:32;100930.0;;;1.2;100.0
28456;BME280;15682;56.742;38.866;2024-03-02T03:06:32;100940.0;;;1.2;100.0
28456;BME280;15682;56.742;38.866;2024-03-02T03:08:32;100940.0;;;1.2;100.0
28456;BME280;15682;56.742;38.866;2024-03-02T03:10:32;100940.0;;;1.3;100.0
28456;BME280;15682;56.742;38.866;2024-03-02T03:12:33;100940.0;;;1.3;100.0
28456;BME280;15682;56.742;38.866;2024-03-02T03:14:32;100940.0;;;1.2;100.0
28456;BME280;15682;56.742;38.866;2024-03-02T03:16:32;100940.0;;;1.2;100.0
28456;BME280;15682;56.742;38.866;2024-03-02T03:18:32;100940.0;;;1.4;100.0
28456;BME280;15682;56.742;38.866;2024-03-02T03:20:32;100940.0;;;1.3;100.0
28456;BME280;15682;56.742;38.866;2024-03-02T03:22:32;100940.0;;;1.3;100.0
28456;BME280;15682;56.742;38.866;2024-03-02T03:24:32;100940.0;;;1.3;100.0
28456;BME280;15682;56.742;38.866;2024-03-02T03:26:35;100940.0;;;1.3;100.0
28456;BME280;15682;56.742;38.866;2024-03-02T03:28:32;100940.0;;;1.3;100.0
28456;BME280;15682;56.742;38.866;2024-03-02T03:30:32;100940.0;;;1.3;100.0
28456;BME280;15682;56.742;38.866;2024-03-02T03:32:32;100950.0;;;1.3;100.0
28456;BME280;15682;56.742;38.866;2024-03-02T03:34:33;100950.0;;;1.3;100.0
28456;BME280;15682;56.742;38.866;2024-03-02T03:36:33;100950.0;;;1.4;100.0
28456;BME280;15682;56.742;38.866;2024-03-02T03:38:32;100950.0;;;1.8;100.0
28456;BME280;15682;56.742;38.866;2024-03-02T03:40:32;100950.0;;;1.5;100.0
28456;BME280;15682;56.742;38.866;2024-03-02T03:42:32;100950.0;;;1.4;100.0
28456;BME280;15682;56.742;38.866;2024-03-02T03:44:32;100950.0;;;1.3;100.0
28456;BME280;15682;56.742;38.866;2024-03-02T03:46:32;100950.0;;;1.4;100.0
28456;BME280;15682;56.742;38.866;2024-03-02T03:48:32;100950.0;;;1.6;100.0
28456;BME280;15682;56.742;38.866;2024-03-02T03:50:32;100950.0;;;1.4;100.0
28456;BME280;15682;56.742;38.866;2024-03-02T03:52:32;100950.0;;;1.5;100.0
28456;BME280;15682;56.742;38.866;2024-03-02T03:54:32;100950.0;;;1.4;100.0
28456;BME280;15682;56.742;38.866;2024-03-02T03:56:32;100950.0;;;1.4;100.0
28456;BME280;15682;56.742;38.866;2024-03-02T03:58:32;100950.0;;;1.3;100.0
28456;BME280;15682;56.742;38.866;2024-03-02T04:00:32;100950.0;;;1.4;100.0
28456;BME280;15682;56.742;38.866;2024-03-02T04:02:32;100950.0;;;1.4;100.0
28456;BME280;15682;56.742;38.866;2024-03-02T04:04:32;100950.0;;;1.4;100.0
28456;BME280;15682;56.742;38.866;2024-03-02T04:06:32;100950.0;;;1.2;100.0
28456;BME280;15682;56.742;38.866;2024-03-02T04:08:32;100950.0;;;1.3;100.0
28456;BME280;15682;56.742;38.866;2024-03-02T04:10:32;100950.0;;;1.3;100.0
28456;BME280;15682;56.742;38.866;2024-03-02T04:12:32;100950.0;;;1.3;100.0
28456;BME280;15682;56.742;38.866;2024-03-02T04:14:32;100950.0;;;1.2;100.0
28456;BME280;15682;56.742;38.866;2024-03-02T04:16:32;100950.0;;;1.3;100.0
28456;BME280;15682;56.742;38.866;2024-03-02T04:18:32;100950.0;;;1.4;100.0
28456;BME280;15682;56.742;38.866;2024-03-02T04:20:32;100950.0;;;1.4;100.0
28456;BME280;15682;56.742;38.866;2024-03-02T04:22:33;100950.0;;;1.2;100.0
28456;BME280;15682;56.742;38.866;2024-03-02T04:24:32;100950.0;;;1.4;100.0
28456;BME280;15682;56.742;38.866;2024-03-02T04:26:32;100950.0;;;1.4;100.0
28456;BME280;15682;56.742;38.866;2024-03-02T04:28:32;100950.0;;;1.4;100.0
28456;BME280;15682;56.742;38.866;2024-03-02T04:30:32;100950.0;;;1.4;100.0
28456;BME280;15682;56.742;38.866;2024-03-02T04:32:32;100950.0;;;1.2;100.0
28456;BME280;15682;56.742;38.866;2024-03-02T04:34:32;100950.0;;;1.2;100.0
28456;BME280;15682;56.742;38.866;2024-03-02T04:36:32;100960.0;;;1.2;100.0
28456;BME280;15682;56.742;38.866;2024-03-02T04:38:33;100960.0;;;1.2;100.0
28456;BME280;15682;56.742;38.866;2024-03-02T04:40:32;100960.0;;;1.5;100.0
28456;BME280;15682;56.742;38.866;2024-03-02T04:42:32;100960.0;;;1.5;100.0
28456;BME280;15682;56.742;38.866;2024-03-02T04:44:32;100960.0;;;1.3;100.0
28456;BME280;15682;56.742;38.866;2024-03-02T04:46:32;100960.0;;;1.1;100.0
28456;BME280;15682;56.742;38.866;2024-03-02T04:48:32;100960.0;;;1.1;100.0
28456;BME280;15682;56.742;38.866;2024-03-02T04:50:32;100960.0;;;1.1;100.0
28456;BME280;15682;56.742;38.866;2024-03-02T04:52:32;100960.0;;;1.1;100.0
28456;BME280;15682;56.742;38.866;2024-03-02T04:54:32;100960.0;;;1.1;100.0
28456;BME280;15682;56.742;38.866;2024-03-02T04:56:32;100960.0;;;1.1;100.0
28456;BME280;15682;56.742;38.866;2024-03-02T04:58:32;100960.0;;;1.1;100.0
28456;BME280;15682;56.742;38.866;2024-03-02T05:00:32;100960.0;;;1.1;100.0
28456;BME280;15682;56.742;38.866;2024-03-02T05:02:32;100950.0;;;1.3;100.0
28456;BME280;15682;56.742;38.866;2024-03-02T05:04:32;100950.0;;;1.3;100.0
28456;BME280;15682;56.742;38.866;2024-03-02T05:06:32;100950.0;;;1.2;100.0
28456;BME280;15682;56.742;38.866;2024-03-02T05:08:32;100950.0;;;1.2;100.0
28456;BME280;15682;56.742;38.866;2024-03-02T05:10:32;100950.0;;;1.1;100.0
28456;BME280;15682;56.742;38.866;2024-03-02T05:12:32;100950.0;;;1.1;100.0
28456;BME280;15682;56.742;38.866;2024-03-02T05:14:32;100950.0;;;1.1;100.0
28456;BME280;15682;56.742;38.866;2024-03-02T05:16:33;100950.0;;;1.3;100.0
28456;BME280;15682;56.742;38.866;2024-03-02T05:18:32;100950.0;;;1.3;100.0
28456;BME280;15682;56.742;38.866;2024-03-02T05:20:32;100950.0;;;1.2;100.0
28456;BME280;15682;56.742;38.866;2024-03-02T05:22:32;100950.0;;;1.2;100.0
28456;BME280;15682;56.742;38.866;2024-03-02T05:24:32;100950.0;;;1.2;100.0
28456;BME280;15682;56.742;38.866;2024-03-02T05:26:32;100950.0;;;1.2;100.0
28456;BME280;15682;56.742;38.866;2024-03-02T05:28:33;100950.0;;;1.3;100.0
28456;BME280;15682;56.742;38.866;2024-03-02T05:30:33;100950.0;;;1.3;100.0
28456;BME280;15682;56.742;38.866;2024-03-02T05:32:33;100950.0;;;1.3;100.0
28456;BME280;15682;56.742;38.866;2024-03-02T05:34:32;100950.0;;;1.3;100.0
28456;BME280;15682;56.742;38.866;2024-03-02T05:36:32;100950.0;;;1.3;100.0
28456;BME280;15682;56.742;38.866;2024-03-02T05:38:32;100950.0;;;1.3;100.0
28456;BME280;15682;56.742;38.866;2024-03-02T05:40:32;100950.0;;;1.3;100.0
28456;BME280;15682;56.742;38.866;2024-03-02T05:42:32;100950.0;;;1.3;100.0
28456;BME280;15682;56.742;38.866;2024-03-02T05:44:32;100950.0;;;1.3;100.0
28456;BME280;15682;56.742;38.866;2024-03-02T05:46:32;100950.0;;;1.3;100.0
28456;BME280;15682;56.742;38.866;2024-03-02T05:48:32;100950.0;;;1.3;100.0
28456;BME280;15682;56.742;38.866;2024-03-02T05:50:32;100960.0;;;1.3;100.0
28456;BME280;15682;56.742;38.866;2024-03-02T05:52:32;100960.0;;;1.7;100.0
28456;BME280;15682;56.742;38.866;2024-03-02T05:54:32;100960.0;;;1.5;100.0
28456;BME280;15682;56.742;38.866;2024-03-02T05:56:32;100970.0;;;1.6;100.0
28456;BME280;15682;56.742;38.866;2024-03-02T05:58:32;100970.0;;;1.6;100.0
28456;BME280;15682;56.742;38.866;2024-03-02T06:00:32;100970.0;;;1.6;100.0
28456;BME280;15682;56.742;38.866;2024-03-02T06:02:32;100970.0;;;1.7;100.0
28456;BME280;15682;56.742;38.866;2024-03-02T06:04:32;100970.0;;;1.6;99.4
28456;BME280;15682;56.742;38.866;2024-03-02T06:06:32;100970.0;;;1.6;99.4
28456;BME280;15682;56.742;38.866;2024-03-02T06:08:32;100970.0;;;1.6;99.4
28456;BME280;15682;56.742;38.866;2024-03-02T06:10:32;100970.0;;;1.7;99.4
28456;BME280;15682;56.742;38.866;2024-03-02T06:12:32;100970.0;;;1.7;99.4
28456;BME280;15682;56.742;38.866;2024-03-02T06:14:32;100970.0;;;1.7;99.2
28456;BME280;15682;56.742;38.866;2024-03-02T06:16:32;100970.0;;;1.7;99.2
28456;BME280;15682;56.742;38.866;2024-03-02T06:18:32;100970.0;;;1.8;99.0
28456;BME280;15682;56.742;38.866;2024-03-02T06:20:32;100970.0;;;1.8;99.0
28456;BME280;15682;56.742;38.866;2024-03-02T06:22:32;100970.0;;;1.8;99.0
28456;BME280;15682;56.742;38.866;2024-03-02T06:24:32;100970.0;;;1.8;98.9
28456;BME280;15682;56.742;38.866;2024-03-02T06:26:32;100980.0;;;1.8;98.9
28456;BME280;15682;56.742;38.866;2024-03-02T06:28:32;100980.0;;;1.7;98.9
28456;BME280;15682;56.742;38.866;2024-03-02T06:30:32;100980.0;;;1.9;98.9
28456;BME280;15682;56.742;38.866;2024-03-02T06:32:32;100980.0;;;2.0;98.9
28456;BME280;15682;56.742;38.866;2024-03-02T06:34:32;100980.0;;;2.0;98.3
28456;BME280;15682;56.742;38.866;2024-03-02T06:36:32;100980.0;;;1.9;98.3
28456;BME280;15682;56.742;38.866;2024-03-02T06:38:32;100980.0;;;1.9;98.3
28456;BME280;15682;56.742;38.866;2024-03-02T06:40:32;100980.0;;;2.1;98.3
28456;BME280;15682;56.742;38.866;2024-03-02T06:42:32;100980.0;;;2.0;98.3
28456;BME280;15682;56.742;38.866;2024-03-02T06:44:32;100980.0;;;2.0;98.1
28456;BME280;15682;56.742;38.866;2024-03-02T06:46:32;100980.0;;;1.9;98.1
28456;BME280;15682;56.742;38.866;2024-03-02T06:48:32;100980.0;;;1.9;98.1
28456;BME280;15682;56.742;38.866;2024-03-02T06:50:32;100980.0;;;1.8;98.1
28456;BME280;15682;56.742;38.866;2024-03-02T06:52:32;100990.0;;;1.8;98.1
28456;BME280;15682;56.742;38.866;2024-03-02T06:54:32;100990.0;;;1.9;98.9
28456;BME280;15682;56.742;38.866;2024-03-02T06:56:32;100990.0;;;1.9;98.9
28456;BME280;15682;56.742;38.866;2024-03-02T06:58:32;100990.0;;;1.8;98.9
28456;BME280;15682;56.742;38.866;2024-03-02T07:00:32;100990.0;;;1.7;99.5
28456;BME280;15682;56.742;38.866;2024-03-02T07:02:32;100990.0;;;1.8;99.5
28456;BME280;15682;56.742;38.866;2024-03-02T07:04:32;100990.0;;;1.8;99.0
28456;BME280;15682;56.742;38.866;2024-03-02T07:06:32;100990.0;;;1.9;99.0
28456;BME280;15682;56.742;38.866;2024-03-02T07:08:32;100990.0;;;1.9;99.0
28456;BME280;15682;56.742;38.866;2024-03-02T07:10:32;100990.0;;;2.0;99.0
28456;BME280;15682;56.742;38.866;2024-03-02T07:12:32;100990.0;;;1.8;99.0
28456;BME280;15682;56.742;38.866;2024-03-02T07:14:32;100990.0;;;1.8;99.5
28456;BME280;15682;56.742;38.866;2024-03-02T07:16:32;100990.0;;;1.8;99.5
28456;BME280;15682;56.742;38.866;2024-03-02T07:18:32;100990.0;;;1.8;99.5
28456;BME280;15682;56.742;38.866;2024-03-02T07:20:32;100990.0;;;1.8;99.5
28456;BME280;15682;56.742;38.866;2024-03-02T07:22:32;100990.0;;;1.7;99.5
28456;BME280;15682;56.742;38.866;2024-03-02T07:24:32;100990.0;;;1.7;99.7
28456;BME280;15682;56.742;38.866;2024-03-02T07:26:32;100990.0;;;1.9;98.9
28456;BME280;15682;56.742;38.866;2024-03-02T07:28:32;100990.0;;;1.8;98.9
28456;BME280;15682;56.742;38.866;2024-03-02T07:30:32;100990.0;;;1.9;98.9
28456;BME280;15682;56.742;38.866;2024-03-02T07:32:32;100990.0;;;2.1;98.2
28456;BME280;15682;56.742;38.866;2024-03-02T07:34:32;100990.0;;;2.1;97.5
28456;BME280;15682;56.742;38.866;2024-03-02T07:36:32;100990.0;;;2.1;97.5
28456;BME280;15682;56.742;38.866;2024-03-02T07:38:32;100990.0;;;2.2;97.5
28456;BME280;15682;56.742;38.866;2024-03-02T07:40:32;100990.0;;;2.2;97.0
28456;BME280;15682;56.742;38.866;2024-03-02T07:42:32;100990.0;;;2.2;97.0
28456;BME280;15682;56.742;38.866;2024-03-02T07:44:32;100990.0;;;2.2;96.9
28456;BME280;15682;56.742;38.866;2024-03-02T07:46:32;100990.0;;;2.3;96.4
28456;BME280;15682;56.742;38.866;2024-03-02T07:48:32;100980.0;;;2.3;96.4
28456;BME280;15682;56.742;38.866;2024-03-02T07:50:32;100980.0;;;2.5;95.7
28456;BME280;15682;56.742;38.866;2024-03-02T07:52:32;100980.0;;;2.5;95.7
28456;BME280;15682;56.742;38.866;2024-03-02T07:54:32;100980.0;;;2.5;95.2
28456;BME280;15682;56.742;38.866;2024-03-02T07:56:32;100980.0;;;2.4;95.2
28456;BME280;15682;56.742;38.866;2024-03-02T07:58:32;100980.0;;;2.4;95.2
28456;BME280;15682;56.742;38.866;2024-03-02T08:00:33;100980.0;;;2.5;95.2
28456;BME280;15682;56.742;38.866;2024-03-02T08:02:33;100980.0;;;2.5;95.2
28456;BME280;15682;56.742;38.866;2024-03-02T08:04:33;100980.0;;;2.5;95.1
28456;BME280;15682;56.742;38.866;2024-03-02T08:06:33;100980.0;;;2.8;94.7
28456;BME280;15682;56.742;38.866;2024-03-02T08:08:33;100970.0;;;3.0;96.8
28456;BME280;15682;56.742;38.866;2024-03-02T08:10:33;100970.0;;;3.1;95.0
28456;BME280;15682;56.742;38.866;2024-03-02T08:12:33;100970.0;;;3.1;94.4
28456;BME280;15682;56.742;38.866;2024-03-02T08:14:33;100960.0;;;3.1;93.5
28456;BME280;15682;56.742;38.866;2024-03-02T08:16:33;100960.0;;;3.3;93.4
28456;BME280;15682;56.742;38.866;2024-03-02T08:18:33;100960.0;;;3.3;91.9
28456;BME280;15682;56.742;38.866;2024-03-02T08:20:33;100960.0;;;3.1;92.4
28456;BME280;15682;56.742;38.866;2024-03-02T08:22:33;100960.0;;;2.9;93.0
28456;BME280;15682;56.742;38.866;2024-03-02T08:24:33;100960.0;;;3.1;93.3
28456;BME280;15682;56.742;38.866;2024-03-02T08:26:33;100960.0;;;3.2;93.3
28456;BME280;15682;56.742;38.866;2024-03-02T08:28:33;100960.0;;;2.9;93.3
28456;BME280;15682;56.742;38.866;2024-03-02T08:30:33;100960.0;;;3.1;93.3
28456;BME280;15682;56.742;38.866;2024-03-02T08:32:33;100960.0;;;3.2;93.3
28456;BME280;15682;56.742;38.866;2024-03-02T08:34:33;100960.0;;;3.3;92.3
28456;BME280;15682;56.742;38.866;2024-03-02T08:36:33;100960.0;;;3.2;92.3
28456;BME280;15682;56.742;38.866;2024-03-02T08:38:33;100970.0;;;3.2;92.3
28456;BME280;15682;56.742;38.866;2024-03-02T08:40:33;100970.0;;;3.0;93.8
28456;BME280;15682;56.742;38.866;2024-03-02T08:42:34;100970.0;;;3.0;93.2
28456;BME280;15682;56.742;38.866;2024-03-02T08:44:33;100970.0;;;3.0;93.0
28456;BME280;15682;56.742;38.866;2024-03-02T08:46:33;100970.0;;;2.8;93.0
28456;BME280;15682;56.742;38.866;2024-03-02T08:48:34;100970.0;;;2.8;93.0
28456;BME280;15682;56.742;38.866;2024-03-02T08:50:34;100980.0;;;3.0;93.0
28456;BME280;15682;56.742;38.866;2024-03-02T08:52:34;100980.0;;;3.0;93.0
28456;BME280;15682;56.742;38.866;2024-03-02T08:54:34;100980.0;;;3.2;93.0
28456;BME280;15682;56.742;38.866;2024-03-02T08:56:34;100980.0;;;3.1;92.5
28456;BME280;15682;56.742;38.866;2024-03-02T08:58:34;100980.0;;;3.4;93.3
28456;BME280;15682;56.742;38.866;2024-03-02T09:00:34;100980.0;;;3.2;92.2
28456;BME280;15682;56.742;38.866;2024-03-02T09:02:34;100980.0;;;3.1;92.2
28456;BME280;15682;56.742;38.866;2024-03-02T09:04:34;100980.0;;;2.9;92.8
28456;BME280;15682;56.742;38.866;2024-03-02T09:06:34;100980.0;;;2.8;93.6
28456;BME280;15682;56.742;38.866;2024-03-02T09:08:34;100980.0;;;2.9;93.6
28456;BME280;15682;56.742;38.866;2024-03-02T09:10:34;100980.0;;;2.9;92.9
28456;BME280;15682;56.742;38.866;2024-03-02T09:12:34;100980.0;;;3.1;92.9
28456;BME280;15682;56.742;38.866;2024-03-02T09:14:35;100980.0;;;3.1;92.5
28456;BME280;15682;56.742;38.866;2024-03-02T09:16:34;100980.0;;;3.2;92.1
28456;BME280;15682;56.742;38.866;2024-03-02T09:18:34;100980.0;;;3.2;91.5
28456;BME280;15682;56.742;38.866;2024-03-02T09:20:34;100980.0;;;3.5;91.5
28456;BME280;15682;56.742;38.866;2024-03-02T09:22:34;100980.0;;;3.5;90.3
28456;BME280;15682;56.742;38.866;2024-03-02T09:24:35;100980.0;;;3.5;90.1
28456;BME280;15682;56.742;38.866;2024-03-02T09:26:34;100980.0;;;3.5;90.1
28456;BME280;15682;56.742;38.866;2024-03-02T09:28:34;100980.0;;;3.7;90.1
28456;BME280;15682;56.742;38.866;2024-03-02T09:30:35;100980.0;;;3.9;89.1
28456;BME280;15682;56.742;38.866;2024-03-02T09:32:36;100980.0;;;3.8;88.6
28456;BME280;15682;56.742;38.866;2024-03-02T09:34:35;100980.0;;;3.8;89.4
28456;BME280;15682;56.742;38.866;2024-03-02T09:36:35;100980.0;;;3.5;89.4
28456;BME280;15682;56.742;38.866;2024-03-02T09:38:35;100980.0;;;3.4;89.9
28456;BME280;15682;56.742;38.866;2024-03-02T09:40:35;100980.0;;;3.5;89.9
28456;BME280;15682;56.742;38.866;2024-03-02T09:42:37;100980.0;;;3.7;89.9
28456;BME280;15682;56.742;38.866;2024-03-02T09:44:35;100970.0;;;3.5;89.1
28456;BME280;15682;56.742;38.866;2024-03-02T09:46:35;100970.0;;;3.5;89.1
28456;BME280;15682;56.742;38.866;2024-03-02T09:48:35;100970.0;;;3.7;91.0
28456;BME280;15682;56.742;38.866;2024-03-02T09:50:35;100970.0;;;3.7;88.8
28456;BME280;15682;56.742;38.866;2024-03-02T09:52:36;100960.0;;;3.7;88.2
28456;BME280;15682;56.742;38.866;2024-03-02T09:54:35;100960.0;;;3.5;88.4
28456;BME280;15682;56.742;38.866;2024-03-02T09:56:36;100960.0;;;3.5;88.4
28456;BME280;15682;56.742;38.866;2024-03-02T09:58:35;100960.0;;;3.5;88.4
28456;BME280;15682;56.742;38.866;2024-03-02T10:00:35;100960.0;;;3.5;88.9
28456;BME280;15682;56.742;38.866;2024-03-02T10:02:35;100960.0;;;3.7;88.2
28456;BME280;15682;56.742;38.866;2024-03-02T10:04:35;100960.0;;;3.6;88.0
28456;BME280;15682;56.742;38.866;2024-03-02T10:06:36;100960.0;;;3.4;88.0
28456;BME280;15682;56.742;38.866;2024-03-02T10:08:42;100960.0;;;3.7;88.0
28456;BME280;15682;56.742;38.866;2024-03-02T10:10:37;100960.0;;;3.6;88.0
28456;BME280;15682;56.742;38.866;2024-03-02T10:12:36;100960.0;;;3.6;88.0
28456;BME280;15682;56.742;38.866;2024-03-02T10:14:36;100960.0;;;3.5;88.5
28456;BME280;15682;56.742;38.866;2024-03-02T10:16:36;100960.0;;;3.6;88.5
28456;BME280;15682;56.742;38.866;2024-03-02T10:18:36;100960.0;;;3.9;88.5
28456;BME280;15682;56.742;38.866;2024-03-02T10:20:37;100960.0;;;3.8;86.5
28456;BME280;15682;56.742;38.866;2024-03-02T10:22:36;100960.0;;;3.6;87.3
28456;BME280;15682;56.742;38.866;2024-03-02T10:24:37;100960.0;;;3.8;87.4
28456;BME280;15682;56.742;38.866;2024-03-02T10:26:36;100960.0;;;3.7;86.4
28456;BME280;15682;56.742;38.866;2024-03-02T10:28:37;100960.0;;;3.6;86.4
28456;BME280;15682;56.742;38.866;2024-03-02T10:30:36;100960.0;;;3.6;86.4
28456;BME280;15682;56.742;38.866;2024-03-02T10:32:38;100960.0;;;3.8;86.4
28456;BME280;15682;56.742;38.866;2024-03-02T10:34:37;100960.0;;;4.0;86.4
28456;BME280;15682;56.742;38.866;2024-03-02T10:36:40;100960.0;;;3.9;86.4
28456;BME280;15682;56.742;38.866;2024-03-02T10:38:36;100960.0;;;3.9;86.4
28456;BME280;15682;56.742;38.866;2024-03-02T10:40:36;100970.0;;;3.9;86.4
28456;BME280;15682;56.742;38.866;2024-03-02T10:42:38;100970.0;;;4.0;86.4
28456;BME280;15682;56.742;38.866;2024-03-02T10:44:37;100970.0;;;4.1;85.9
28456;BME280;15682;56.742;38.866;2024-03-02T10:46:38;100970.0;;;4.2;85.9
28456;BME280;15682;56.742;38.866;2024-03-02T10:48:39;100970.0;;;4.2;85.9